Waynesville, Ohio
Current Conditions -  °F | °C
As of 7:53 PM on Friday 28 Nov 2014 (Local Time) from KMGY Reporting Station
Clear Clear  
Wind Chill: 24°   Ceiling: Unl
Heat Index: 32°   Visibility: 10mi
Dew Point: 19°   Wind: 9mph
Humidity: 59%   Direction: 160°SSE
Pressure: 30.13"   Gusts: NA
Location:  39.53°N, 84.09°W
Report Text: KMGY 290053Z AUTO 16008KT 10SM CLR 00/M07 A3013 RMK AO2 SLP213 T00001072
Loading
Personal Weather Stations






























Interactive Weather Map New forecast layout! Learn more

10-Day Weather Forecast

Advertisements
Track Severe Weather on mobile